Aviation Digital Data Service (ADDS)

Output produced by TAFs form (1941 UTC 01 February 2015)
found at http://aviationweather.gov/adds/tafs/
 
KRIL 011739Z 0118/0218 00000KT P6SM OVC110 
     FM011930 29003KT P6SM FEW060 SCT110 
     FM020100 VRB03KT P6SM BKN100 
     FM020600 VRB04KT P6SM SCT060 OVC080 
     FM021200 00000KT P6SM VCSH BKN050